createdAt,value
2023-04-22T00:02:23.512Z,14.84
2023-04-22T00:04:50.392Z,14.85
2023-04-22T00:07:17.481Z,14.84
2023-04-22T00:09:44.578Z,14.82
2023-04-22T00:12:14.201Z,14.80
2023-04-22T00:14:41.029Z,14.78
2023-04-22T00:17:07.727Z,14.77
2023-04-22T00:19:35.088Z,14.76
2023-04-22T00:22:01.947Z,14.75
2023-04-22T00:24:29.072Z,14.74
2023-04-22T00:26:55.893Z,14.74
2023-04-22T00:29:22.597Z,14.73
2023-04-22T00:31:49.505Z,14.72
2023-04-22T00:34:18.094Z,14.73
2023-04-22T00:36:46.217Z,14.72
2023-04-22T00:39:12.864Z,14.73
2023-04-22T00:41:40.269Z,14.72
2023-04-22T00:44:11.065Z,14.72
2023-04-22T00:46:39.608Z,14.70
2023-04-22T00:49:08.000Z,14.69
2023-04-22T00:51:35.581Z,14.68
2023-04-22T00:54:03.563Z,14.67
2023-04-22T00:56:33.999Z,14.66
2023-04-22T00:59:00.672Z,14.63
2023-04-22T01:01:28.262Z,14.63
2023-04-22T01:03:55.154Z,14.62
2023-04-22T01:06:24.020Z,14.59
2023-04-22T01:08:51.306Z,14.57
2023-04-22T01:11:18.817Z,14.55
2023-04-22T01:13:46.919Z,14.53
2023-04-22T01:16:13.933Z,14.51
2023-04-22T01:18:40.630Z,14.50
2023-04-22T01:21:07.425Z,14.48
2023-04-22T01:23:34.569Z,14.46
2023-04-22T01:26:01.575Z,14.45
2023-04-22T01:28:29.141Z,14.44
2023-04-22T01:30:56.088Z,14.43
2023-04-22T01:33:23.121Z,14.42
2023-04-22T01:35:49.853Z,14.41
2023-04-22T01:38:16.620Z,14.40
2023-04-22T01:40:43.324Z,14.39
2023-04-22T01:43:10.341Z,14.38
2023-04-22T01:45:37.078Z,14.36
2023-04-22T01:48:04.915Z,14.34
2023-04-22T01:50:31.596Z,14.34
2023-04-22T01:52:59.012Z,14.34
2023-04-22T01:55:25.750Z,14.35
2023-04-22T01:57:52.670Z,14.35
2023-04-22T02:00:19.338Z,14.35
2023-04-22T02:02:47.391Z,14.34
2023-04-22T02:05:14.270Z,14.34
2023-04-22T02:07:41.162Z,14.33
2023-04-22T02:10:09.542Z,14.34
2023-04-22T02:12:36.242Z,14.33
2023-04-22T02:15:03.254Z,14.32
2023-04-22T02:17:30.376Z,14.30
2023-04-22T02:19:57.097Z,14.29
2023-04-22T02:22:23.943Z,14.28
2023-04-22T02:24:51.156Z,14.27
2023-04-22T02:27:17.726Z,14.26
2023-04-22T02:29:46.098Z,14.25
2023-04-22T02:32:13.079Z,14.22
2023-04-22T02:34:39.750Z,14.22
2023-04-22T02:37:06.388Z,14.23
2023-04-22T02:39:33.180Z,14.23
2023-04-22T02:42:00.270Z,14.22
2023-04-22T02:44:27.490Z,14.22
2023-04-22T02:46:54.160Z,14.22
2023-04-22T02:49:20.822Z,14.20
2023-04-22T02:51:47.469Z,14.20
2023-04-22T02:54:14.200Z,14.19
2023-04-22T02:56:40.827Z,14.18
2023-04-22T02:59:07.471Z,14.16
2023-04-22T03:01:35.233Z,14.13
2023-04-22T03:04:03.177Z,14.12
2023-04-22T03:06:30.237Z,14.09
2023-04-22T03:08:57.452Z,14.08
2023-04-22T03:11:24.378Z,14.09
2023-04-22T03:13:51.014Z,14.09
2023-04-22T03:16:18.088Z,14.09
2023-04-22T03:18:44.984Z,14.10
2023-04-22T03:21:11.805Z,14.11
2023-04-22T03:23:40.556Z,14.11
2023-04-22T03:26:07.804Z,14.11
2023-04-22T03:28:34.617Z,14.11
2023-04-22T03:31:01.915Z,14.10
2023-04-22T03:33:28.958Z,14.11
2023-04-22T03:36:00.750Z,14.11
2023-04-22T03:38:27.523Z,14.12
2023-04-22T03:40:54.843Z,14.13
2023-04-22T03:43:34.125Z,14.11
2023-04-22T03:46:07.330Z,14.11
2023-04-22T03:48:36.116Z,14.11
2023-04-22T03:51:06.833Z,14.11
2023-04-22T03:53:35.777Z,14.11
2023-04-22T03:56:02.769Z,14.11
2023-04-22T03:58:33.888Z,14.12
2023-04-22T04:01:01.383Z,14.12
2023-04-22T04:03:30.205Z,14.13
2023-04-22T04:08:26.852Z,14.14
2023-04-22T04:10:53.641Z,14.13
2023-04-22T04:13:20.319Z,14.13
2023-04-22T04:16:00.494Z,14.12
2023-04-22T04:18:29.692Z,14.11
2023-04-22T04:20:56.836Z,14.14
2023-04-22T04:23:23.820Z,14.16
2023-04-22T04:25:52.207Z,14.04
2023-04-22T04:28:19.161Z,13.92
2023-04-22T04:30:46.045Z,13.84
2023-04-22T04:33:12.975Z,13.76
2023-04-22T04:35:41.659Z,13.74
2023-04-22T04:38:09.210Z,13.74
2023-04-22T04:40:37.238Z,13.76
2023-04-22T04:43:10.046Z,13.76
2023-04-22T04:45:48.446Z,13.72
2023-04-22T04:48:16.906Z,13.68
2023-04-22T04:50:50.326Z,13.68
2023-04-22T04:53:17.154Z,13.68
2023-04-22T04:55:44.071Z,13.67
2023-04-22T04:58:17.155Z,13.68
2023-04-22T05:00:44.399Z,13.68
2023-04-22T05:03:11.980Z,13.64
2023-04-22T05:05:39.627Z,13.61
2023-04-22T05:08:06.314Z,13.63
2023-04-22T05:10:38.492Z,13.67
2023-04-22T05:13:05.232Z,13.72
2023-04-22T05:15:32.309Z,13.78
2023-04-22T05:17:59.083Z,13.83
2023-04-22T05:20:26.352Z,13.89
2023-04-22T05:22:53.312Z,13.95
2023-04-22T05:25:20.426Z,14.03
2023-04-22T05:27:57.617Z,14.09
2023-04-22T05:30:25.376Z,14.18
2023-04-22T05:32:52.082Z,14.24
2023-04-22T05:35:18.960Z,14.31
2023-04-22T05:37:45.565Z,14.35
2023-04-22T05:40:12.451Z,14.40
2023-04-22T05:42:39.197Z,14.45
2023-04-22T05:45:06.585Z,14.51
2023-04-22T05:47:33.292Z,14.52
2023-04-22T05:50:00.402Z,14.52
2023-04-22T05:52:50.469Z,14.53
2023-04-22T05:55:17.891Z,14.57
2023-04-22T05:57:44.891Z,14.60
2023-04-22T06:00:28.731Z,14.59
2023-04-22T06:03:08.077Z,14.58
2023-04-22T06:05:35.586Z,14.59
2023-04-22T06:08:02.164Z,14.65
2023-04-22T06:10:28.939Z,14.70
2023-04-22T06:12:56.159Z,14.75
2023-04-22T06:15:23.191Z,14.74
2023-04-22T06:17:50.247Z,14.73
2023-04-22T06:20:17.079Z,14.69
2023-04-22T06:22:44.242Z,14.67
2023-04-22T06:25:10.851Z,14.70
2023-04-22T06:27:38.041Z,14.71
2023-04-22T06:30:05.881Z,14.66
2023-04-22T06:32:32.518Z,14.58
2023-04-22T06:34:59.141Z,14.51
2023-04-22T06:37:27.126Z,14.48
2023-04-22T06:39:54.196Z,14.48
2023-04-22T06:42:39.671Z,14.56
2023-04-22T06:45:24.972Z,14.72
2023-04-22T06:48:06.239Z,14.97
2023-04-22T06:50:45.726Z,15.32
2023-04-22T06:53:12.476Z,15.68
2023-04-22T06:55:39.523Z,15.94
2023-04-22T06:58:06.788Z,16.06
2023-04-22T07:00:33.408Z,16.20
2023-04-22T07:03:00.086Z,16.46
2023-04-22T07:05:26.970Z,16.62
2023-04-22T07:07:53.624Z,16.80
2023-04-22T07:10:21.265Z,17.02
2023-04-22T07:13:20.066Z,17.19
2023-04-22T07:15:46.901Z,17.26
2023-04-22T07:18:13.592Z,17.32
2023-04-22T07:20:40.274Z,17.45
2023-04-22T07:23:06.827Z,17.58
2023-04-22T07:25:33.456Z,17.65
2023-04-22T07:28:00.169Z,17.70
2023-04-22T07:30:26.805Z,17.67
2023-04-22T07:32:53.559Z,17.75
2023-04-22T07:35:20.237Z,17.99
2023-04-22T07:37:46.926Z,18.17
2023-04-22T07:40:14.099Z,18.29
2023-04-22T07:42:40.918Z,18.52
2023-04-22T07:45:07.979Z,18.65
2023-04-22T07:47:34.665Z,18.68
2023-04-22T07:50:01.411Z,18.91
2023-04-22T07:52:28.155Z,19.05
2023-04-22T07:54:54.769Z,19.19
2023-04-22T07:57:22.616Z,19.36
2023-04-22T07:59:49.830Z,19.41
2023-04-22T08:02:16.511Z,19.45
2023-04-22T08:04:43.636Z,19.57
2023-04-22T08:07:29.775Z,19.80
2023-04-22T08:09:57.371Z,19.91
2023-04-22T08:12:24.165Z,20.05
2023-04-22T08:14:50.899Z,20.17
2023-04-22T08:17:21.796Z,20.28
2023-04-22T08:19:49.117Z,20.32
2023-04-22T08:22:17.848Z,20.41
2023-04-22T08:24:44.649Z,20.49
2023-04-22T08:27:11.452Z,20.56
2023-04-22T08:29:38.589Z,20.54
2023-04-22T08:32:05.654Z,20.49
2023-04-22T08:34:32.325Z,20.56
2023-04-22T08:36:59.237Z,20.69
2023-04-22T08:39:25.944Z,20.77
2023-04-22T08:41:53.457Z,20.85
2023-04-22T08:44:22.180Z,20.91
2023-04-22T08:46:49.566Z,21.06
2023-04-22T08:49:17.016Z,21.16
2023-04-22T08:51:45.076Z,21.15
2023-04-22T08:54:12.403Z,21.18
2023-04-22T08:56:44.627Z,21.22
2023-04-22T08:59:12.734Z,21.12
2023-04-22T09:01:41.374Z,21.13
2023-04-22T09:04:11.371Z,21.19
2023-04-22T09:06:39.227Z,21.34
2023-04-22T09:09:07.773Z,21.44
2023-04-22T09:11:35.933Z,21.60
2023-04-22T09:14:06.140Z,21.70
2023-04-22T09:16:33.866Z,21.84
2023-04-22T09:19:01.372Z,21.92
2023-04-22T09:21:28.487Z,21.94
2023-04-22T09:23:57.053Z,21.95
2023-04-22T09:26:26.316Z,21.97
2023-04-22T09:28:56.285Z,22.19
2023-04-22T09:31:24.236Z,22.37
2023-04-22T09:33:53.670Z,22.42
2023-04-22T09:36:27.660Z,22.34
2023-04-22T09:39:09.485Z,22.29
2023-04-22T09:41:41.421Z,22.48
2023-04-22T09:44:16.904Z,22.73
2023-04-22T09:46:45.074Z,22.95
2023-04-22T09:49:11.725Z,23.07
2023-04-22T09:51:42.443Z,23.12
2023-04-22T09:54:11.296Z,23.05
2023-04-22T09:56:52.223Z,22.97
2023-04-22T09:59:23.740Z,22.97
2023-04-22T10:01:55.292Z,22.74
2023-04-22T10:04:23.470Z,22.66
2023-04-22T10:06:51.152Z,22.90
2023-04-22T10:09:19.822Z,23.23
2023-04-22T10:11:47.528Z,23.42
2023-04-22T10:14:14.348Z,23.42
2023-04-22T10:16:45.290Z,23.41
2023-04-22T10:19:17.295Z,23.52
2023-04-22T10:21:45.931Z,23.52
2023-04-22T10:24:19.768Z,23.56
2023-04-22T10:27:00.417Z,23.54
2023-04-22T10:29:36.831Z,23.52
2023-04-22T10:32:10.923Z,23.53
2023-04-22T10:34:39.187Z,23.51
2023-04-22T10:37:13.972Z,23.60
2023-04-22T10:39:43.273Z,23.73
2023-04-22T10:42:12.929Z,23.90
2023-04-22T10:44:54.197Z,24.18
2023-04-22T10:47:32.517Z,24.35
2023-04-22T10:50:31.670Z,24.54
2023-04-22T10:53:03.280Z,24.64
2023-04-22T10:55:52.868Z,24.84
2023-04-22T10:58:21.675Z,25.04
2023-04-22T11:00:54.166Z,25.14
2023-04-22T11:03:28.104Z,25.25
2023-04-22T11:06:18.905Z,25.34
2023-04-22T11:08:49.989Z,25.01
2023-04-22T11:11:18.775Z,24.90
2023-04-22T11:13:50.606Z,24.83
2023-04-22T11:16:18.789Z,24.91
2023-04-22T11:18:47.949Z,24.95
2023-04-22T11:21:14.557Z,24.97
2023-04-22T11:23:53.037Z,24.96
2023-04-22T11:26:34.254Z,24.84
2023-04-22T11:29:00.972Z,24.61
2023-04-22T11:31:27.617Z,24.58
2023-04-22T11:33:59.379Z,24.47
2023-04-22T11:36:26.548Z,24.25
2023-04-22T11:38:57.038Z,24.09
2023-04-22T11:41:23.962Z,24.00
2023-04-22T11:43:50.760Z,23.96
2023-04-22T11:46:29.151Z,23.96
2023-04-22T11:49:20.030Z,24.12
2023-04-22T11:51:56.837Z,24.18
2023-04-22T11:54:34.737Z,24.22
2023-04-22T11:57:03.845Z,24.32
2023-04-22T11:59:30.554Z,24.58
2023-04-22T12:01:57.125Z,24.81
2023-04-22T12:04:23.854Z,24.91
2023-04-22T12:06:53.682Z,25.11
2023-04-22T12:09:24.644Z,25.19
2023-04-22T12:11:52.054Z,25.29
2023-04-22T12:14:18.758Z,25.39
2023-04-22T12:16:45.586Z,25.48
2023-04-22T12:19:12.229Z,25.47
2023-04-22T12:21:38.836Z,25.35
2023-04-22T12:24:11.263Z,25.26
2023-04-22T12:26:37.968Z,25.20
2023-04-22T12:29:04.579Z,25.26
2023-04-22T12:31:31.488Z,25.32
2023-04-22T12:33:58.189Z,25.49
2023-04-22T12:36:26.292Z,25.50
2023-04-22T12:38:52.926Z,25.43
2023-04-22T12:41:19.498Z,25.40
2023-04-22T12:43:46.553Z,25.38
2023-04-22T12:46:13.273Z,25.46
2023-04-22T12:48:39.938Z,25.54
2023-04-22T12:51:06.925Z,25.71
2023-04-22T12:53:34.197Z,25.82
2023-04-22T12:56:01.002Z,25.92
2023-04-22T12:58:27.644Z,26.04
2023-04-22T13:00:54.299Z,26.10
2023-04-22T13:03:21.221Z,25.96
2023-04-22T13:05:48.072Z,25.83
2023-04-22T13:08:14.944Z,25.84
2023-04-22T13:10:41.578Z,25.93
2023-04-22T13:15:39.117Z,25.99
2023-04-22T13:18:06.446Z,25.82
2023-04-22T13:20:33.395Z,25.49
2023-04-22T13:23:00.004Z,25.24
2023-04-22T13:25:26.640Z,25.02
2023-04-22T13:27:53.374Z,24.99
2023-04-22T13:30:20.170Z,24.96
2023-04-22T13:32:47.191Z,24.81
2023-04-22T13:35:13.793Z,24.84
2023-04-22T13:37:40.463Z,24.82
2023-04-22T13:40:08.392Z,24.84
2023-04-22T13:42:35.457Z,24.89
2023-04-22T13:45:02.085Z,24.95
2023-04-22T13:47:28.771Z,24.99
2023-04-22T13:49:55.441Z,25.02
2023-04-22T13:52:22.049Z,25.06
2023-04-22T13:54:48.661Z,25.20
2023-04-22T13:57:15.411Z,25.28
2023-04-22T13:59:42.428Z,25.32
2023-04-22T14:02:09.597Z,25.34
2023-04-22T14:04:36.515Z,25.33
2023-04-22T14:07:04.098Z,25.24
2023-04-22T14:09:31.291Z,25.09
2023-04-22T14:11:58.643Z,25.00
2023-04-22T14:14:25.302Z,25.04
2023-04-22T14:16:52.234Z,25.11
2023-04-22T14:19:19.041Z,25.10
2023-04-22T14:21:46.186Z,25.14
2023-04-22T14:24:13.146Z,25.22
2023-04-22T14:26:39.880Z,25.26
2023-04-22T14:29:06.832Z,25.31
2023-04-22T14:31:34.084Z,25.23
2023-04-22T14:34:00.962Z,25.06
2023-04-22T14:36:27.954Z,24.80
2023-04-22T14:38:54.628Z,24.62
2023-04-22T14:41:21.710Z,24.43
2023-04-22T14:43:48.538Z,24.18
2023-04-22T14:46:15.387Z,24.02
2023-04-22T14:48:42.120Z,23.92
2023-04-22T14:51:08.933Z,23.80
2023-04-22T14:53:37.124Z,23.61
2023-04-22T14:56:03.729Z,23.48
2023-04-22T14:58:33.018Z,23.34
2023-04-22T15:01:00.531Z,23.17
2023-04-22T15:03:27.747Z,23.03
2023-04-22T15:05:55.195Z,22.99
2023-04-22T15:08:22.234Z,22.99
2023-04-22T15:10:48.925Z,22.97
2023-04-22T15:13:15.691Z,22.91
2023-04-22T15:15:42.434Z,22.85
2023-04-22T15:18:09.357Z,22.81
2023-04-22T15:20:36.098Z,22.80
2023-04-22T15:23:03.109Z,22.84
2023-04-22T15:25:29.775Z,22.83
2023-04-22T15:27:57.217Z,22.83
2023-04-22T15:30:24.809Z,22.86
2023-04-22T15:32:51.445Z,22.86
2023-04-22T15:35:18.498Z,22.80
2023-04-22T15:37:45.969Z,22.78
2023-04-22T15:40:12.723Z,22.75
2023-04-22T15:42:39.333Z,22.70
2023-04-22T15:45:06.866Z,22.62
2023-04-22T15:47:34.882Z,22.58
2023-04-22T15:50:06.838Z,22.51
2023-04-22T15:52:33.715Z,22.42
2023-04-22T15:55:03.520Z,22.33
2023-04-22T15:57:34.658Z,22.24
2023-04-22T16:00:11.913Z,22.11
2023-04-22T16:02:44.345Z,22.02
2023-04-22T16:05:12.205Z,21.97
2023-04-22T16:07:40.378Z,21.92
2023-04-22T16:10:07.909Z,21.89
2023-04-22T16:12:34.750Z,21.87
2023-04-22T16:15:01.941Z,21.86
2023-04-22T16:17:29.929Z,21.85
2023-04-22T16:19:56.682Z,21.80
2023-04-22T16:22:23.472Z,21.78
2023-04-22T16:24:51.034Z,21.73
2023-04-22T16:27:19.296Z,21.66
2023-04-22T16:29:46.182Z,21.59
2023-04-22T16:32:12.876Z,21.53
2023-04-22T16:34:39.584Z,21.51
2023-04-22T16:37:06.584Z,21.47
2023-04-22T16:39:33.648Z,21.44
2023-04-22T16:42:02.365Z,21.42
2023-04-22T16:44:29.019Z,21.40
2023-04-22T16:46:55.595Z,21.37
2023-04-22T16:49:22.192Z,21.37
2023-04-22T16:51:48.796Z,21.37
2023-04-22T16:54:16.161Z,21.34
2023-04-22T16:56:42.756Z,21.32
2023-04-22T16:59:09.358Z,21.28
2023-04-22T17:01:36.274Z,21.24
2023-04-22T17:04:03.352Z,21.21
2023-04-22T17:06:30.255Z,21.18
2023-04-22T17:08:56.842Z,21.17
2023-04-22T17:11:24.178Z,21.14
2023-04-22T17:13:51.643Z,21.11
2023-04-22T17:16:18.937Z,21.07
2023-04-22T17:18:47.123Z,21.01
2023-04-22T17:21:14.312Z,20.97
2023-04-22T17:23:40.939Z,20.93
2023-04-22T17:26:07.779Z,20.89
2023-04-22T17:28:34.828Z,20.85
2023-04-22T17:31:01.571Z,20.80
2023-04-22T17:33:29.199Z,20.76
2023-04-22T17:35:56.403Z,20.71
2023-04-22T17:38:23.028Z,20.67
2023-04-22T17:40:49.688Z,20.62
2023-04-22T17:43:16.417Z,20.58
2023-04-22T17:45:43.037Z,20.52
2023-04-22T17:48:09.724Z,20.46
2023-04-22T17:50:36.433Z,20.40
2023-04-22T17:53:03.082Z,20.34
2023-04-22T17:55:35.141Z,20.28
2023-04-22T17:58:04.103Z,20.21
2023-04-22T18:00:32.901Z,20.13
2023-04-22T18:02:59.801Z,20.05
2023-04-22T18:05:27.410Z,19.97
2023-04-22T18:08:00.839Z,19.90
2023-04-22T18:10:28.679Z,19.82
2023-04-22T18:12:55.501Z,19.73
2023-04-22T18:15:23.518Z,19.67
2023-04-22T18:17:51.332Z,19.60
2023-04-22T18:20:19.725Z,19.51
2023-04-22T18:22:48.746Z,19.42
2023-04-22T18:25:16.157Z,19.33
2023-04-22T18:27:42.933Z,19.24
2023-04-22T18:30:10.105Z,19.14
2023-04-22T18:32:37.917Z,19.04
2023-04-22T18:35:05.527Z,18.95
2023-04-22T18:37:35.038Z,18.88
2023-04-22T18:40:02.681Z,18.81
2023-04-22T18:42:29.911Z,18.75
2023-04-22T18:44:56.621Z,18.71
2023-04-22T18:47:23.356Z,18.68
2023-04-22T18:49:50.159Z,18.64
2023-04-22T18:52:17.395Z,18.61
2023-04-22T18:54:44.642Z,18.57
2023-04-22T18:57:11.356Z,18.52
2023-04-22T18:59:38.523Z,18.48
2023-04-22T19:02:06.062Z,18.44
2023-04-22T19:04:33.139Z,18.41
2023-04-22T19:06:59.856Z,18.39
2023-04-22T19:09:26.527Z,18.38
2023-04-22T19:11:53.153Z,18.37
2023-04-22T19:14:19.926Z,18.37
2023-04-22T19:16:46.717Z,18.38
2023-04-22T19:19:13.559Z,18.40
2023-04-22T19:21:40.653Z,18.42
2023-04-22T19:24:08.290Z,18.43
2023-04-22T19:26:35.333Z,18.46
2023-04-22T19:29:02.217Z,18.48
2023-04-22T19:31:29.461Z,18.51
2023-04-22T19:33:56.919Z,18.53
2023-04-22T19:36:24.941Z,18.53
2023-04-22T19:38:51.656Z,18.52
2023-04-22T19:41:18.283Z,18.50
2023-04-22T19:43:46.118Z,18.47
2023-04-22T19:46:12.851Z,18.45
2023-04-22T19:48:40.018Z,18.43
2023-04-22T19:51:06.835Z,18.43
2023-04-22T19:53:34.994Z,18.43
2023-04-22T19:56:03.101Z,18.44
2023-04-22T19:58:30.824Z,18.43
2023-04-22T20:00:57.601Z,18.44
2023-04-22T20:03:25.248Z,18.43
2023-04-22T20:05:52.407Z,18.40
2023-04-22T20:08:20.043Z,18.38
2023-04-22T20:10:49.630Z,18.36
2023-04-22T20:13:17.526Z,18.35
2023-04-22T20:15:44.533Z,18.35
2023-04-22T20:18:12.122Z,18.36
2023-04-22T20:20:46.424Z,18.37
2023-04-22T20:23:14.882Z,18.36
2023-04-22T20:25:45.680Z,18.36
2023-04-22T20:28:13.027Z,18.34
2023-04-22T20:30:40.163Z,18.33
2023-04-22T20:33:07.080Z,18.30
2023-04-22T20:35:35.947Z,18.27
2023-04-22T20:38:03.751Z,18.24
2023-04-22T20:40:31.063Z,18.20
2023-04-22T20:42:58.838Z,18.18
2023-04-22T20:45:27.352Z,18.15
2023-04-22T20:47:54.335Z,18.11
2023-04-22T20:50:21.359Z,18.07
2023-04-22T20:52:49.214Z,18.03
2023-04-22T20:55:17.045Z,18.00
2023-04-22T20:57:43.915Z,17.97
2023-04-22T21:00:11.348Z,17.91
2023-04-22T21:02:39.524Z,17.76
2023-04-22T21:05:07.098Z,17.67
2023-04-22T21:07:35.490Z,17.56
2023-04-22T21:10:02.639Z,17.48
2023-04-22T21:12:29.938Z,17.45
2023-04-22T21:14:56.786Z,17.44
2023-04-22T21:17:28.681Z,17.42
2023-04-22T21:19:58.145Z,17.38
2023-04-22T21:22:25.043Z,17.32
2023-04-22T21:24:52.547Z,17.26
2023-04-22T21:27:20.586Z,17.22
2023-04-22T21:29:48.715Z,17.18
2023-04-22T21:32:15.865Z,17.13
2023-04-22T21:34:43.087Z,17.07
2023-04-22T21:37:10.041Z,17.02
2023-04-22T21:39:36.868Z,16.98
2023-04-22T21:42:07.598Z,16.93
2023-04-22T21:44:36.456Z,16.90
2023-04-22T21:47:04.471Z,16.86
2023-04-22T21:49:31.263Z,16.80
2023-04-22T21:51:58.426Z,16.74
2023-04-22T21:54:25.320Z,16.68
2023-04-22T21:56:52.124Z,16.64
2023-04-22T21:59:18.789Z,16.61
2023-04-22T22:01:45.881Z,16.58
2023-04-22T22:04:15.391Z,16.54
2023-04-22T22:06:43.402Z,16.50
2023-04-22T22:09:10.130Z,16.47
2023-04-22T22:11:36.884Z,16.46
2023-04-22T22:14:03.852Z,16.46
2023-04-22T22:16:31.226Z,16.47
2023-04-22T22:18:58.498Z,16.47
2023-04-22T22:21:25.467Z,16.49
2023-04-22T22:23:52.249Z,16.50
2023-04-22T22:26:19.640Z,16.53
2023-04-22T22:28:46.509Z,16.54
2023-04-22T22:31:13.203Z,16.55
2023-04-22T22:33:39.830Z,16.54
2023-04-22T22:36:06.667Z,16.55
2023-04-22T22:38:33.310Z,16.55
2023-04-22T22:41:00.142Z,16.56
2023-04-22T22:43:27.062Z,16.57
2023-04-22T22:45:54.201Z,16.58
2023-04-22T22:48:21.399Z,16.58
2023-04-22T22:50:49.170Z,16.57
2023-04-22T22:53:16.002Z,16.55
2023-04-22T22:55:42.752Z,16.53
2023-04-22T22:58:09.610Z,16.52
2023-04-22T23:00:36.999Z,16.51
2023-04-22T23:03:04.452Z,16.51
2023-04-22T23:05:31.786Z,16.50
2023-04-22T23:07:58.396Z,16.49
2023-04-22T23:10:25.030Z,16.49
2023-04-22T23:12:51.622Z,16.48
2023-04-22T23:15:18.300Z,16.46
2023-04-22T23:17:45.054Z,16.45
2023-04-22T23:20:12.169Z,16.44
2023-04-22T23:22:40.673Z,16.43
2023-04-22T23:25:08.601Z,16.43
2023-04-22T23:27:36.017Z,16.43
2023-04-22T23:30:04.529Z,16.43
2023-04-22T23:32:32.532Z,16.43
2023-04-22T23:35:01.907Z,16.43
2023-04-22T23:37:29.621Z,16.44
2023-04-22T23:39:56.284Z,16.46
2023-04-22T23:42:23.001Z,16.46
2023-04-22T23:44:49.861Z,16.47
2023-04-22T23:47:16.960Z,16.47
2023-04-22T23:49:43.659Z,16.48
2023-04-22T23:52:11.024Z,16.49
2023-04-22T23:54:38.025Z,16.49
2023-04-22T23:57:05.010Z,16.48
2023-04-22T23:59:31.997Z,16.47
